sensor_id;sensor_type;location;lat;lon;timestamp;P1;durP1;ratioP1;P2;durP2;ratioP2
25972;SDS011;13765;51.166;4.466;2023-05-29T00:02:25;19.33;;;6.60;;
25972;SDS011;13765;51.166;4.466;2023-05-29T00:04:52;19.13;;;7.15;;
25972;SDS011;13765;51.166;4.466;2023-05-29T00:07:18;21.85;;;6.32;;
25972;SDS011;13765;51.166;4.466;2023-05-29T00:09:44;20.08;;;5.78;;
25972;SDS011;13765;51.166;4.466;2023-05-29T00:12:10;17.30;;;6.00;;
25972;SDS011;13765;51.166;4.466;2023-05-29T00:14:41;19.00;;;6.65;;
25972;SDS011;13765;51.166;4.466;2023-05-29T00:17:09;22.63;;;6.75;;
25972;SDS011;13765;51.166;4.466;2023-05-29T00:19:37;21.23;;;6.60;;
25972;SDS011;13765;51.166;4.466;2023-05-29T00:22:03;21.23;;;7.00;;
25972;SDS011;13765;51.166;4.466;2023-05-29T00:24:28;20.00;;;6.60;;
25972;SDS011;13765;51.166;4.466;2023-05-29T00:26:54;20.63;;;7.18;;
25972;SDS011;13765;51.166;4.466;2023-05-29T00:29:20;18.77;;;6.20;;
25972;SDS011;13765;51.166;4.466;2023-05-29T00:31:47;16.10;;;5.65;;
25972;SDS011;13765;51.166;4.466;2023-05-29T00:34:18;23.23;;;6.43;;
25972;SDS011;13765;51.166;4.466;2023-05-29T00:36:50;14.65;;;5.63;;
25972;SDS011;13765;51.166;4.466;2023-05-29T00:39:19;18.20;;;6.20;;
25972;SDS011;13765;51.166;4.466;2023-05-29T00:41:48;18.08;;;6.15;;
25972;SDS011;13765;51.166;4.466;2023-05-29T00:44:16;20.98;;;6.53;;
25972;SDS011;13765;51.166;4.466;2023-05-29T00:46:46;15.57;;;5.82;;
25972;SDS011;13765;51.166;4.466;2023-05-29T00:49:16;19.80;;;6.72;;
25972;SDS011;13765;51.166;4.466;2023-05-29T00:51:47;15.82;;;5.40;;
25972;SDS011;13765;51.166;4.466;2023-05-29T00:54:17;20.40;;;6.30;;
25972;SDS011;13765;51.166;4.466;2023-05-29T00:56:52;21.05;;;6.28;;
25972;SDS011;13765;51.166;4.466;2023-05-29T01:01:51;27.58;;;6.70;;
25972;SDS011;13765;51.166;4.466;2023-05-29T01:04:19;23.75;;;5.55;;
25972;SDS011;13765;51.166;4.466;2023-05-29T01:06:46;19.38;;;5.25;;
25972;SDS011;13765;51.166;4.466;2023-05-29T01:09:14;22.73;;;5.47;;
25972;SDS011;13765;51.166;4.466;2023-05-29T01:14:29;14.80;;;4.85;;
25972;SDS011;13765;51.166;4.466;2023-05-29T01:17:19;29.80;;;5.30;;
25972;SDS011;13765;51.166;4.466;2023-05-29T01:27:51;12.32;;;4.55;;
25972;SDS011;13765;51.166;4.466;2023-05-29T01:30:25;19.60;;;4.38;;
25972;SDS011;13765;51.166;4.466;2023-05-29T01:32:56;21.15;;;4.35;;
25972;SDS011;13765;51.166;4.466;2023-05-29T01:35:22;19.52;;;4.25;;
25972;SDS011;13765;51.166;4.466;2023-05-29T01:37:50;15.10;;;4.13;;
25972;SDS011;13765;51.166;4.466;2023-05-29T01:40:16;17.42;;;4.60;;
25972;SDS011;13765;51.166;4.466;2023-05-29T01:42:44;19.00;;;4.38;;
25972;SDS011;13765;51.166;4.466;2023-05-29T01:45:10;16.77;;;4.00;;
25972;SDS011;13765;51.166;4.466;2023-05-29T01:47:39;17.13;;;3.53;;
25972;SDS011;13765;51.166;4.466;2023-05-29T01:50:05;15.02;;;4.32;;
25972;SDS011;13765;51.166;4.466;2023-05-29T01:52:34;19.13;;;4.25;;
25972;SDS011;13765;51.166;4.466;2023-05-29T01:55:00;19.60;;;3.92;;
25972;SDS011;13765;51.166;4.466;2023-05-29T01:57:26;22.20;;;4.47;;
25972;SDS011;13765;51.166;4.466;2023-05-29T01:59:54;16.02;;;3.92;;
25972;SDS011;13765;51.166;4.466;2023-05-29T02:02:21;19.40;;;3.63;;
25972;SDS011;13765;51.166;4.466;2023-05-29T02:04:50;16.25;;;3.42;;
25972;SDS011;13765;51.166;4.466;2023-05-29T02:07:16;16.63;;;3.88;;
25972;SDS011;13765;51.166;4.466;2023-05-29T02:09:42;13.25;;;3.28;;
25972;SDS011;13765;51.166;4.466;2023-05-29T02:12:08;18.73;;;4.57;;
25972;SDS011;13765;51.166;4.466;2023-05-29T02:14:33;20.23;;;3.80;;
25972;SDS011;13765;51.166;4.466;2023-05-29T02:17:04;18.33;;;4.15;;
25972;SDS011;13765;51.166;4.466;2023-05-29T02:19:30;19.92;;;3.78;;
25972;SDS011;13765;51.166;4.466;2023-05-29T02:21:56;16.42;;;3.20;;
25972;SDS011;13765;51.166;4.466;2023-05-29T02:24:21;14.07;;;3.83;;
25972;SDS011;13765;51.166;4.466;2023-05-29T02:26:48;19.50;;;3.78;;
25972;SDS011;13765;51.166;4.466;2023-05-29T02:29:15;18.02;;;4.25;;
25972;SDS011;13765;51.166;4.466;2023-05-29T02:31:41;20.25;;;3.60;;
25972;SDS011;13765;51.166;4.466;2023-05-29T02:34:09;20.60;;;3.67;;
25972;SDS011;13765;51.166;4.466;2023-05-29T02:36:34;20.25;;;3.70;;
25972;SDS011;13765;51.166;4.466;2023-05-29T02:39:02;15.05;;;3.63;;
25972;SDS011;13765;51.166;4.466;2023-05-29T02:41:28;17.70;;;3.30;;
25972;SDS011;13765;51.166;4.466;2023-05-29T02:43:54;19.73;;;4.53;;
25972;SDS011;13765;51.166;4.466;2023-05-29T02:46:19;20.73;;;3.90;;
25972;SDS011;13765;51.166;4.466;2023-05-29T02:48:46;22.33;;;4.25;;
25972;SDS011;13765;51.166;4.466;2023-05-29T02:51:12;15.32;;;3.60;;
25972;SDS011;13765;51.166;4.466;2023-05-29T02:53:38;20.52;;;3.90;;
25972;SDS011;13765;51.166;4.466;2023-05-29T02:56:04;23.25;;;3.92;;
25972;SDS011;13765;51.166;4.466;2023-05-29T02:58:31;12.48;;;3.47;;
25972;SDS011;13765;51.166;4.466;2023-05-29T03:01:00;25.73;;;3.67;;
25972;SDS011;13765;51.166;4.466;2023-05-29T03:03:29;15.30;;;3.55;;
25972;SDS011;13765;51.166;4.466;2023-05-29T03:05:55;16.92;;;3.55;;
25972;SDS011;13765;51.166;4.466;2023-05-29T03:08:20;17.58;;;4.10;;
25972;SDS011;13765;51.166;4.466;2023-05-29T03:10:50;21.75;;;4.13;;
25972;SDS011;13765;51.166;4.466;2023-05-29T03:13:17;24.63;;;4.35;;
25972;SDS011;13765;51.166;4.466;2023-05-29T03:15:44;19.55;;;2.90;;
25972;SDS011;13765;51.166;4.466;2023-05-29T03:18:10;13.55;;;3.17;;
25972;SDS011;13765;51.166;4.466;2023-05-29T03:20:36;16.63;;;3.38;;
25972;SDS011;13765;51.166;4.466;2023-05-29T03:23:04;13.60;;;3.90;;
25972;SDS011;13765;51.166;4.466;2023-05-29T03:25:30;23.83;;;4.00;;
25972;SDS011;13765;51.166;4.466;2023-05-29T03:27:58;20.55;;;3.83;;
25972;SDS011;13765;51.166;4.466;2023-05-29T03:30:26;16.33;;;3.35;;
25972;SDS011;13765;51.166;4.466;2023-05-29T03:32:52;18.90;;;3.58;;
25972;SDS011;13765;51.166;4.466;2023-05-29T03:35:19;15.73;;;3.30;;
25972;SDS011;13765;51.166;4.466;2023-05-29T03:37:45;19.83;;;4.47;;
25972;SDS011;13765;51.166;4.466;2023-05-29T03:40:11;15.60;;;3.78;;
25972;SDS011;13765;51.166;4.466;2023-05-29T03:42:37;20.48;;;4.05;;
25972;SDS011;13765;51.166;4.466;2023-05-29T03:45:03;19.48;;;4.03;;
25972;SDS011;13765;51.166;4.466;2023-05-29T03:47:32;22.52;;;3.92;;
25972;SDS011;13765;51.166;4.466;2023-05-29T03:49:57;24.85;;;4.30;;
25972;SDS011;13765;51.166;4.466;2023-05-29T03:52:23;22.40;;;4.05;;
25972;SDS011;13765;51.166;4.466;2023-05-29T03:54:48;12.98;;;3.58;;
25972;SDS011;13765;51.166;4.466;2023-05-29T03:57:19;20.10;;;3.78;;
25972;SDS011;13765;51.166;4.466;2023-05-29T03:59:47;17.17;;;3.83;;
25972;SDS011;13765;51.166;4.466;2023-05-29T04:02:15;23.58;;;3.97;;
25972;SDS011;13765;51.166;4.466;2023-05-29T04:04:43;23.10;;;4.07;;
25972;SDS011;13765;51.166;4.466;2023-05-29T04:07:11;21.45;;;4.00;;
25972;SDS011;13765;51.166;4.466;2023-05-29T04:09:39;15.18;;;3.95;;
25972;SDS011;13765;51.166;4.466;2023-05-29T04:12:05;20.20;;;3.22;;
25972;SDS011;13765;51.166;4.466;2023-05-29T04:14:31;20.77;;;3.92;;
25972;SDS011;13765;51.166;4.466;2023-05-29T04:16:59;18.13;;;3.70;;
25972;SDS011;13765;51.166;4.466;2023-05-29T04:19:24;21.35;;;3.72;;
25972;SDS011;13765;51.166;4.466;2023-05-29T04:21:52;21.52;;;4.60;;
25972;SDS011;13765;51.166;4.466;2023-05-29T04:24:18;21.55;;;4.22;;
25972;SDS011;13765;51.166;4.466;2023-05-29T04:26:53;25.00;;;4.55;;
25972;SDS011;13765;51.166;4.466;2023-05-29T04:29:19;24.05;;;4.43;;
25972;SDS011;13765;51.166;4.466;2023-05-29T04:31:44;21.42;;;3.85;;
25972;SDS011;13765;51.166;4.466;2023-05-29T04:34:12;13.70;;;3.70;;
25972;SDS011;13765;51.166;4.466;2023-05-29T04:36:44;19.17;;;4.43;;
25972;SDS011;13765;51.166;4.466;2023-05-29T04:39:13;24.80;;;4.13;;
25972;SDS011;13765;51.166;4.466;2023-05-29T04:41:39;23.58;;;4.97;;
25972;SDS011;13765;51.166;4.466;2023-05-29T04:44:08;22.23;;;4.63;;
25972;SDS011;13765;51.166;4.466;2023-05-29T04:46:36;30.17;;;4.50;;
25972;SDS011;13765;51.166;4.466;2023-05-29T04:49:04;26.20;;;4.13;;
25972;SDS011;13765;51.166;4.466;2023-05-29T04:51:30;14.35;;;3.40;;
25972;SDS011;13765;51.166;4.466;2023-05-29T04:53:56;25.45;;;3.78;;
25972;SDS011;13765;51.166;4.466;2023-05-29T04:56:21;25.95;;;3.90;;
25972;SDS011;13765;51.166;4.466;2023-05-29T04:58:47;17.63;;;3.08;;
25972;SDS011;13765;51.166;4.466;2023-05-29T05:01:15;23.13;;;3.53;;
25972;SDS011;13765;51.166;4.466;2023-05-29T05:03:42;16.42;;;3.53;;
25972;SDS011;13765;51.166;4.466;2023-05-29T05:06:09;20.42;;;3.70;;
25972;SDS011;13765;51.166;4.466;2023-05-29T05:08:37;19.85;;;3.58;;
25972;SDS011;13765;51.166;4.466;2023-05-29T05:11:03;24.52;;;4.07;;
25972;SDS011;13765;51.166;4.466;2023-05-29T05:13:31;21.08;;;3.67;;
25972;SDS011;13765;51.166;4.466;2023-05-29T05:15:56;23.38;;;3.88;;
25972;SDS011;13765;51.166;4.466;2023-05-29T05:18:25;14.68;;;3.85;;
25972;SDS011;13765;51.166;4.466;2023-05-29T05:20:50;12.95;;;3.35;;
25972;SDS011;13765;51.166;4.466;2023-05-29T05:23:18;19.42;;;3.72;;
25972;SDS011;13765;51.166;4.466;2023-05-29T05:25:44;18.80;;;3.22;;
25972;SDS011;13765;51.166;4.466;2023-05-29T05:28:12;21.27;;;4.10;;
25972;SDS011;13765;51.166;4.466;2023-05-29T05:30:40;22.55;;;3.58;;
25972;SDS011;13765;51.166;4.466;2023-05-29T05:33:06;13.80;;;3.60;;
25972;SDS011;13765;51.166;4.466;2023-05-29T05:35:32;21.73;;;3.60;;
25972;SDS011;13765;51.166;4.466;2023-05-29T05:37:58;17.40;;;2.78;;
25972;SDS011;13765;51.166;4.466;2023-05-29T05:40:25;17.40;;;3.17;;
25972;SDS011;13765;51.166;4.466;2023-05-29T05:42:53;15.65;;;3.10;;
25972;SDS011;13765;51.166;4.466;2023-05-29T05:45:19;14.93;;;3.35;;
25972;SDS011;13765;51.166;4.466;2023-05-29T05:47:47;19.38;;;3.40;;
25972;SDS011;13765;51.166;4.466;2023-05-29T05:50:13;16.00;;;4.35;;
25972;SDS011;13765;51.166;4.466;2023-05-29T05:52:38;13.45;;;2.75;;
25972;SDS011;13765;51.166;4.466;2023-05-29T05:55:04;17.05;;;2.65;;
25972;SDS011;13765;51.166;4.466;2023-05-29T05:57:30;20.75;;;3.08;;
25972;SDS011;13765;51.166;4.466;2023-05-29T06:00:07;19.13;;;3.40;;
25972;SDS011;13765;51.166;4.466;2023-05-29T06:02:37;18.00;;;3.42;;
25972;SDS011;13765;51.166;4.466;2023-05-29T06:05:03;14.48;;;3.72;;
25972;SDS011;13765;51.166;4.466;2023-05-29T06:07:29;16.85;;;3.00;;
25972;SDS011;13765;51.166;4.466;2023-05-29T06:09:55;18.67;;;2.78;;
25972;SDS011;13765;51.166;4.466;2023-05-29T06:12:25;10.23;;;2.88;;
25972;SDS011;13765;51.166;4.466;2023-05-29T06:14:51;16.67;;;3.17;;
25972;SDS011;13765;51.166;4.466;2023-05-29T06:17:16;14.77;;;2.95;;
25972;SDS011;13765;51.166;4.466;2023-05-29T06:19:42;13.48;;;2.85;;
25972;SDS011;13765;51.166;4.466;2023-05-29T06:22:08;16.35;;;3.10;;
25972;SDS011;13765;51.166;4.466;2023-05-29T06:24:34;16.33;;;3.15;;
25972;SDS011;13765;51.166;4.466;2023-05-29T06:27:02;14.45;;;2.70;;
25972;SDS011;13765;51.166;4.466;2023-05-29T06:29:31;13.90;;;3.20;;
25972;SDS011;13765;51.166;4.466;2023-05-29T06:32:00;14.02;;;2.95;;
25972;SDS011;13765;51.166;4.466;2023-05-29T06:34:25;16.20;;;2.80;;
25972;SDS011;13765;51.166;4.466;2023-05-29T06:36:51;18.35;;;3.15;;
25972;SDS011;13765;51.166;4.466;2023-05-29T06:39:17;12.18;;;2.75;;
25972;SDS011;13765;51.166;4.466;2023-05-29T06:41:45;13.88;;;2.97;;
25972;SDS011;13765;51.166;4.466;2023-05-29T06:44:11;12.15;;;2.72;;
25972;SDS011;13765;51.166;4.466;2023-05-29T06:46:37;16.23;;;3.00;;
25972;SDS011;13765;51.166;4.466;2023-05-29T06:49:03;12.88;;;2.72;;
25972;SDS011;13765;51.166;4.466;2023-05-29T06:51:28;13.00;;;2.72;;
25972;SDS011;13765;51.166;4.466;2023-05-29T06:54:00;16.33;;;3.75;;
25972;SDS011;13765;51.166;4.466;2023-05-29T06:56:25;11.63;;;2.70;;
25972;SDS011;13765;51.166;4.466;2023-05-29T06:58:55;11.93;;;2.92;;
25972;SDS011;13765;51.166;4.466;2023-05-29T07:01:20;13.23;;;2.85;;
25972;SDS011;13765;51.166;4.466;2023-05-29T07:03:46;19.45;;;3.30;;
25972;SDS011;13765;51.166;4.466;2023-05-29T07:06:16;15.07;;;2.75;;
25972;SDS011;13765;51.166;4.466;2023-05-29T07:08:41;18.05;;;2.90;;
25972;SDS011;13765;51.166;4.466;2023-05-29T07:11:09;12.45;;;2.65;;
25972;SDS011;13765;51.166;4.466;2023-05-29T07:13:37;18.50;;;3.15;;
25972;SDS011;13765;51.166;4.466;2023-05-29T07:16:08;11.27;;;2.53;;
25972;SDS011;13765;51.166;4.466;2023-05-29T07:18:36;14.48;;;2.65;;
25972;SDS011;13765;51.166;4.466;2023-05-29T07:21:01;13.48;;;2.67;;
25972;SDS011;13765;51.166;4.466;2023-05-29T07:23:27;20.27;;;3.40;;
25972;SDS011;13765;51.166;4.466;2023-05-29T07:25:55;15.20;;;3.00;;
25972;SDS011;13765;51.166;4.466;2023-05-29T07:28:21;18.20;;;3.33;;
25972;SDS011;13765;51.166;4.466;2023-05-29T07:30:46;13.63;;;2.88;;
25972;SDS011;13765;51.166;4.466;2023-05-29T07:33:12;15.48;;;2.53;;
25972;SDS011;13765;51.166;4.466;2023-05-29T07:35:38;20.77;;;2.85;;
25972;SDS011;13765;51.166;4.466;2023-05-29T07:38:03;12.38;;;2.90;;
25972;SDS011;13765;51.166;4.466;2023-05-29T07:40:29;20.42;;;3.08;;
25972;SDS011;13765;51.166;4.466;2023-05-29T07:42:55;12.27;;;3.00;;
25972;SDS011;13765;51.166;4.466;2023-05-29T07:45:20;20.85;;;5.03;;
25972;SDS011;13765;51.166;4.466;2023-05-29T07:47:48;19.17;;;4.53;;
25972;SDS011;13765;51.166;4.466;2023-05-29T07:50:16;17.02;;;2.92;;
25972;SDS011;13765;51.166;4.466;2023-05-29T07:52:45;21.02;;;3.20;;
25972;SDS011;13765;51.166;4.466;2023-05-29T07:55:13;12.57;;;2.78;;
25972;SDS011;13765;51.166;4.466;2023-05-29T07:57:41;19.83;;;3.15;;
25972;SDS011;13765;51.166;4.466;2023-05-29T08:00:07;17.58;;;3.45;;
25972;SDS011;13765;51.166;4.466;2023-05-29T08:02:33;19.05;;;3.55;;
25972;SDS011;13765;51.166;4.466;2023-05-29T08:05:04;15.73;;;3.03;;
25972;SDS011;13765;51.166;4.466;2023-05-29T08:07:32;17.50;;;3.53;;
25972;SDS011;13765;51.166;4.466;2023-05-29T08:10:03;11.70;;;2.50;;
25972;SDS011;13765;51.166;4.466;2023-05-29T08:12:32;17.38;;;3.85;;
25972;SDS011;13765;51.166;4.466;2023-05-29T08:15:00;12.02;;;2.20;;
25972;SDS011;13765;51.166;4.466;2023-05-29T08:17:26;15.18;;;3.17;;
25972;SDS011;13765;51.166;4.466;2023-05-29T08:19:53;11.85;;;1.95;;
25972;SDS011;13765;51.166;4.466;2023-05-29T08:22:27;12.15;;;2.78;;
25972;SDS011;13765;51.166;4.466;2023-05-29T08:24:56;18.35;;;3.13;;
25972;SDS011;13765;51.166;4.466;2023-05-29T08:27:22;12.55;;;2.67;;
25972;SDS011;13765;51.166;4.466;2023-05-29T08:29:52;19.77;;;3.10;;
25972;SDS011;13765;51.166;4.466;2023-05-29T08:32:19;12.07;;;2.13;;
25972;SDS011;13765;51.166;4.466;2023-05-29T08:34:45;14.35;;;2.65;;
25972;SDS011;13765;51.166;4.466;2023-05-29T08:37:11;15.95;;;3.03;;
25972;SDS011;13765;51.166;4.466;2023-05-29T08:39:38;17.95;;;4.07;;
25972;SDS011;13765;51.166;4.466;2023-05-29T08:42:12;11.18;;;2.28;;
25972;SDS011;13765;51.166;4.466;2023-05-29T08:44:43;12.70;;;2.50;;
25972;SDS011;13765;51.166;4.466;2023-05-29T08:47:12;18.90;;;2.67;;
25972;SDS011;13765;51.166;4.466;2023-05-29T08:49:43;13.10;;;2.85;;
25972;SDS011;13765;51.166;4.466;2023-05-29T08:52:12;13.07;;;2.70;;
25972;SDS011;13765;51.166;4.466;2023-05-29T08:54:46;9.50;;;2.38;;
25972;SDS011;13765;51.166;4.466;2023-05-29T08:57:15;8.48;;;3.45;;
25972;SDS011;13765;51.166;4.466;2023-05-29T08:59:44;14.27;;;2.60;;
25972;SDS011;13765;51.166;4.466;2023-05-29T09:02:14;12.38;;;2.90;;
25972;SDS011;13765;51.166;4.466;2023-05-29T09:04:42;9.73;;;2.10;;
25972;SDS011;13765;51.166;4.466;2023-05-29T09:07:14;15.48;;;2.40;;
25972;SDS011;13765;51.166;4.466;2023-05-29T09:09:44;13.90;;;2.55;;
25972;SDS011;13765;51.166;4.466;2023-05-29T09:12:13;12.68;;;2.40;;
25972;SDS011;13765;51.166;4.466;2023-05-29T09:14:42;10.82;;;2.47;;
25972;SDS011;13765;51.166;4.466;2023-05-29T09:17:10;13.15;;;2.45;;
25972;SDS011;13765;51.166;4.466;2023-05-29T09:19:37;13.52;;;2.78;;
25972;SDS011;13765;51.166;4.466;2023-05-29T09:22:09;17.73;;;3.50;;
25972;SDS011;13765;51.166;4.466;2023-05-29T09:24:39;10.10;;;2.58;;
25972;SDS011;13765;51.166;4.466;2023-05-29T09:27:06;12.75;;;2.58;;
25972;SDS011;13765;51.166;4.466;2023-05-29T09:29:39;13.67;;;2.33;;
25972;SDS011;13765;51.166;4.466;2023-05-29T09:32:09;11.68;;;2.70;;
25972;SDS011;13765;51.166;4.466;2023-05-29T09:34:42;12.60;;;2.22;;
25972;SDS011;13765;51.166;4.466;2023-05-29T09:37:08;10.32;;;1.83;;
25972;SDS011;13765;51.166;4.466;2023-05-29T09:42:11;14.82;;;2.63;;
25972;SDS011;13765;51.166;4.466;2023-05-29T09:44:39;15.75;;;2.95;;
25972;SDS011;13765;51.166;4.466;2023-05-29T09:47:05;17.17;;;2.78;;
25972;SDS011;13765;51.166;4.466;2023-05-29T09:49:34;14.25;;;2.35;;
25972;SDS011;13765;51.166;4.466;2023-05-29T09:52:03;14.32;;;2.50;;
25972;SDS011;13765;51.166;4.466;2023-05-29T09:54:30;11.68;;;2.17;;
25972;SDS011;13765;51.166;4.466;2023-05-29T09:56:57;10.13;;;2.40;;
25972;SDS011;13765;51.166;4.466;2023-05-29T09:59:29;15.27;;;3.20;;
25972;SDS011;13765;51.166;4.466;2023-05-29T10:02:02;9.90;;;2.15;;
25972;SDS011;13765;51.166;4.466;2023-05-29T10:04:35;13.45;;;2.60;;
25972;SDS011;13765;51.166;4.466;2023-05-29T10:07:04;10.57;;;2.45;;
25972;SDS011;13765;51.166;4.466;2023-05-29T10:09:36;9.55;;;3.20;;
25972;SDS011;13765;51.166;4.466;2023-05-29T10:12:06;13.88;;;2.92;;
25972;SDS011;13765;51.166;4.466;2023-05-29T10:14:33;10.52;;;2.85;;
25972;SDS011;13765;51.166;4.466;2023-05-29T10:17:01;10.80;;;2.53;;
25972;SDS011;13765;51.166;4.466;2023-05-29T10:19:35;13.23;;;2.35;;
25972;SDS011;13765;51.166;4.466;2023-05-29T10:22:02;8.95;;;2.25;;
25972;SDS011;13765;51.166;4.466;2023-05-29T10:24:31;12.70;;;2.85;;
25972;SDS011;13765;51.166;4.466;2023-05-29T10:26:59;12.45;;;2.80;;
25972;SDS011;13765;51.166;4.466;2023-05-29T10:40:04;10.63;;;2.20;;
25972;SDS011;13765;51.166;4.466;2023-05-29T10:45:03;6.47;;;2.30;;
25972;SDS011;13765;51.166;4.466;2023-05-29T10:47:32;11.88;;;2.33;;
25972;SDS011;13765;51.166;4.466;2023-05-29T10:50:00;16.63;;;2.55;;
25972;SDS011;13765;51.166;4.466;2023-05-29T10:52:33;16.00;;;2.47;;
25972;SDS011;13765;51.166;4.466;2023-05-29T10:55:02;16.35;;;3.88;;
25972;SDS011;13765;51.166;4.466;2023-05-29T10:57:31;10.48;;;2.47;;
25972;SDS011;13765;51.166;4.466;2023-05-29T11:00:04;10.55;;;3.13;;
25972;SDS011;13765;51.166;4.466;2023-05-29T11:02:32;9.80;;;2.55;;
25972;SDS011;13765;51.166;4.466;2023-05-29T11:05:06;13.43;;;2.47;;
25972;SDS011;13765;51.166;4.466;2023-05-29T11:07:52;8.88;;;1.98;;
25972;SDS011;13765;51.166;4.466;2023-05-29T11:13:51;16.55;;;2.38;;
25972;SDS011;13765;51.166;4.466;2023-05-29T11:18:54;10.60;;;2.58;;
25972;SDS011;13765;51.166;4.466;2023-05-29T11:31:46;9.07;;;2.45;;
25972;SDS011;13765;51.166;4.466;2023-05-29T11:34:14;6.53;;;2.13;;
25972;SDS011;13765;51.166;4.466;2023-05-29T11:36:42;15.75;;;3.15;;
25972;SDS011;13765;51.166;4.466;2023-05-29T11:39:09;11.20;;;2.10;;
25972;SDS011;13765;51.166;4.466;2023-05-29T11:41:37;13.63;;;2.75;;
25972;SDS011;13765;51.166;4.466;2023-05-29T11:44:04;12.50;;;2.45;;
25972;SDS011;13765;51.166;4.466;2023-05-29T11:46:33;12.13;;;2.50;;
25972;SDS011;13765;51.166;4.466;2023-05-29T11:48:59;11.45;;;2.05;;
25972;SDS011;13765;51.166;4.466;2023-05-29T11:51:25;10.88;;;2.88;;
25972;SDS011;13765;51.166;4.466;2023-05-29T11:53:53;8.35;;;2.42;;
25972;SDS011;13765;51.166;4.466;2023-05-29T11:56:32;9.48;;;2.28;;
25972;SDS011;13765;51.166;4.466;2023-05-29T11:58:58;13.77;;;2.60;;
25972;SDS011;13765;51.166;4.466;2023-05-29T12:01:25;10.38;;;2.40;;
25972;SDS011;13765;51.166;4.466;2023-05-29T12:03:51;15.05;;;2.80;;
25972;SDS011;13765;51.166;4.466;2023-05-29T12:06:30;10.88;;;3.00;;
25972;SDS011;13765;51.166;4.466;2023-05-29T12:08:57;11.90;;;3.03;;
25972;SDS011;13765;51.166;4.466;2023-05-29T12:11:23;14.27;;;2.50;;
25972;SDS011;13765;51.166;4.466;2023-05-29T12:13:57;9.48;;;2.40;;
25972;SDS011;13765;51.166;4.466;2023-05-29T12:16:33;13.00;;;2.70;;
25972;SDS011;13765;51.166;4.466;2023-05-29T12:18:59;15.95;;;3.47;;
25972;SDS011;13765;51.166;4.466;2023-05-29T12:21:26;14.82;;;2.80;;
25972;SDS011;13765;51.166;4.466;2023-05-29T12:23:55;15.50;;;2.83;;
25972;SDS011;13765;51.166;4.466;2023-05-29T12:26:23;13.15;;;2.78;;
25972;SDS011;13765;51.166;4.466;2023-05-29T12:28:51;10.60;;;2.65;;
25972;SDS011;13765;51.166;4.466;2023-05-29T12:31:28;11.88;;;2.92;;
25972;SDS011;13765;51.166;4.466;2023-05-29T12:34:00;11.57;;;3.03;;
25972;SDS011;13765;51.166;4.466;2023-05-29T12:36:26;14.80;;;3.05;;
25972;SDS011;13765;51.166;4.466;2023-05-29T12:38:55;11.98;;;2.40;;
25972;SDS011;13765;51.166;4.466;2023-05-29T12:41:26;8.90;;;2.45;;
25972;SDS011;13765;51.166;4.466;2023-05-29T12:44:02;15.98;;;2.92;;
25972;SDS011;13765;51.166;4.466;2023-05-29T12:46:34;16.60;;;2.95;;
25972;SDS011;13765;51.166;4.466;2023-05-29T12:49:13;10.95;;;2.45;;
25972;SDS011;13765;51.166;4.466;2023-05-29T12:51:40;12.82;;;2.80;;
25972;SDS011;13765;51.166;4.466;2023-05-29T12:54:09;13.00;;;3.70;;
25972;SDS011;13765;51.166;4.466;2023-05-29T12:56:38;14.57;;;2.92;;
25972;SDS011;13765;51.166;4.466;2023-05-29T12:59:07;11.90;;;2.72;;
25972;SDS011;13765;51.166;4.466;2023-05-29T13:01:34;12.15;;;2.67;;
25972;SDS011;13765;51.166;4.466;2023-05-29T13:04:04;9.68;;;3.20;;
25972;SDS011;13765;51.166;4.466;2023-05-29T13:06:37;10.55;;;2.15;;
25972;SDS011;13765;51.166;4.466;2023-05-29T13:09:03;14.90;;;2.90;;
25972;SDS011;13765;51.166;4.466;2023-05-29T13:11:30;12.82;;;2.55;;
25972;SDS011;13765;51.166;4.466;2023-05-29T13:13:58;9.77;;;2.28;;
25972;SDS011;13765;51.166;4.466;2023-05-29T13:16:25;11.07;;;2.50;;
25972;SDS011;13765;51.166;4.466;2023-05-29T13:18:51;11.25;;;2.65;;
25972;SDS011;13765;51.166;4.466;2023-05-29T13:21:19;14.07;;;2.67;;
25972;SDS011;13765;51.166;4.466;2023-05-29T13:23:45;12.20;;;2.85;;
25972;SDS011;13765;51.166;4.466;2023-05-29T13:26:10;10.98;;;3.15;;
25972;SDS011;13765;51.166;4.466;2023-05-29T13:28:36;14.00;;;2.28;;
25972;SDS011;13765;51.166;4.466;2023-05-29T13:31:04;11.27;;;2.70;;
25972;SDS011;13765;51.166;4.466;2023-05-29T13:33:32;12.82;;;3.20;;
25972;SDS011;13765;51.166;4.466;2023-05-29T13:36:00;13.68;;;2.90;;
25972;SDS011;13765;51.166;4.466;2023-05-29T13:38:28;16.98;;;3.38;;
25972;SDS011;13765;51.166;4.466;2023-05-29T13:40:53;11.73;;;2.60;;
25972;SDS011;13765;51.166;4.466;2023-05-29T13:43:19;11.35;;;2.42;;
25972;SDS011;13765;51.166;4.466;2023-05-29T13:45:45;11.70;;;2.42;;
25972;SDS011;13765;51.166;4.466;2023-05-29T13:48:10;11.68;;;2.30;;
25972;SDS011;13765;51.166;4.466;2023-05-29T13:50:36;10.18;;;2.42;;
25972;SDS011;13765;51.166;4.466;2023-05-29T13:53:01;10.20;;;2.22;;
25972;SDS011;13765;51.166;4.466;2023-05-29T13:55:27;13.13;;;2.35;;
25972;SDS011;13765;51.166;4.466;2023-05-29T13:57:53;12.15;;;2.80;;
25972;SDS011;13765;51.166;4.466;2023-05-29T14:00:18;6.85;;;2.08;;
25972;SDS011;13765;51.166;4.466;2023-05-29T14:02:44;10.70;;;2.47;;
25972;SDS011;13765;51.166;4.466;2023-05-29T14:05:10;6.43;;;1.98;;
25972;SDS011;13765;51.166;4.466;2023-05-29T14:07:37;14.07;;;3.20;;
25972;SDS011;13765;51.166;4.466;2023-05-29T14:10:04;7.85;;;2.10;;
25972;SDS011;13765;51.166;4.466;2023-05-29T14:12:30;10.68;;;2.83;;
25972;SDS011;13765;51.166;4.466;2023-05-29T14:14:55;7.75;;;2.60;;
25972;SDS011;13765;51.166;4.466;2023-05-29T14:17:21;9.98;;;2.58;;
25972;SDS011;13765;51.166;4.466;2023-05-29T14:19:47;9.90;;;2.53;;
25972;SDS011;13765;51.166;4.466;2023-05-29T14:22:13;6.07;;;1.83;;
25972;SDS011;13765;51.166;4.466;2023-05-29T14:24:41;10.27;;;2.30;;
25972;SDS011;13765;51.166;4.466;2023-05-29T14:27:09;13.23;;;2.30;;
25972;SDS011;13765;51.166;4.466;2023-05-29T14:29:35;10.02;;;2.75;;
25972;SDS011;13765;51.166;4.466;2023-05-29T14:32:00;11.13;;;2.78;;
25972;SDS011;13765;51.166;4.466;2023-05-29T14:34:26;11.00;;;2.13;;
25972;SDS011;13765;51.166;4.466;2023-05-29T14:36:51;11.60;;;2.45;;
25972;SDS011;13765;51.166;4.466;2023-05-29T14:39:19;11.13;;;3.05;;
25972;SDS011;13765;51.166;4.466;2023-05-29T14:41:48;11.00;;;2.80;;
25972;SDS011;13765;51.166;4.466;2023-05-29T14:44:16;13.55;;;2.85;;
25972;SDS011;13765;51.166;4.466;2023-05-29T14:46:42;10.40;;;2.58;;
25972;SDS011;13765;51.166;4.466;2023-05-29T14:49:07;12.48;;;2.97;;
25972;SDS011;13765;51.166;4.466;2023-05-29T14:51:33;12.77;;;2.60;;
25972;SDS011;13765;51.166;4.466;2023-05-29T14:53:59;9.85;;;2.33;;
25972;SDS011;13765;51.166;4.466;2023-05-29T14:56:24;14.43;;;2.70;;
25972;SDS011;13765;51.166;4.466;2023-05-29T14:58:50;9.27;;;2.63;;
25972;SDS011;13765;51.166;4.466;2023-05-29T15:01:17;7.75;;;2.25;;
25972;SDS011;13765;51.166;4.466;2023-05-29T15:03:45;13.88;;;2.92;;
25972;SDS011;13765;51.166;4.466;2023-05-29T15:06:11;13.93;;;3.13;;
25972;SDS011;13765;51.166;4.466;2023-05-29T15:08:38;10.85;;;2.97;;
25972;SDS011;13765;51.166;4.466;2023-05-29T15:11:06;14.27;;;3.40;;
25972;SDS011;13765;51.166;4.466;2023-05-29T15:13:32;14.18;;;2.90;;
25972;SDS011;13765;51.166;4.466;2023-05-29T15:15:58;10.85;;;2.33;;
25972;SDS011;13765;51.166;4.466;2023-05-29T15:18:28;12.40;;;2.67;;
25972;SDS011;13765;51.166;4.466;2023-05-29T15:20:57;15.23;;;2.90;;
25972;SDS011;13765;51.166;4.466;2023-05-29T15:23:26;11.68;;;3.45;;
25972;SDS011;13765;51.166;4.466;2023-05-29T15:25:54;10.80;;;2.75;;